Time;durP1;ratioP1;P1;durP2;ratioP2;P2;SDS_P1;SDS_P2;PMS_P1;PMS_P2;Temp;Humidity;BMP_temperature;BMP_pressure;BME280_temperature;BME280_humidity;BME280_pressure;Samples;Min_cycle;Max_cycle;Signal;HPM_P1;HPM_P2
2021/10/18 00:00:39;;;;;;;;;;;23.30;46.20;;;;;;1614474;73;1143;-69
2021/10/18 00:02:41;;;;;;;;;;;23.20;46.10;;;;;;1607341;73;802;-69
2021/10/18 00:04:43;;;;;;;;;;;23.30;46.20;;;;;;1587190;75;458;-69
2021/10/18 00:06:44;;;;;;;;;;;23.20;46.00;;;;;;1596224;73;684;-70
2021/10/18 00:08:46;;;;;;;;;;;23.20;46.00;;;;;;1613155;73;1942;-72
2021/10/18 00:10:48;;;;;;;;;;;23.20;46.00;;;;;;1602735;73;1191;-70
2021/10/18 00:12:50;;;;;;;;;;;23.20;45.90;;;;;;1593707;73;764;-70
2021/10/18 00:14:52;;;;;;;;;;;23.20;46.00;;;;;;1619775;73;746;-70
2021/10/18 00:16:54;;;;;;;;;;;23.20;45.90;;;;;;1620241;73;793;-70
2021/10/18 00:18:56;;;;;;;;;;;23.20;45.90;;;;;;1619066;73;758;-70
2021/10/18 00:20:58;;;;;;;;;;;23.20;46.00;;;;;;1597063;73;1151;-70
2021/10/18 00:22:59;;;;;;;;;;;23.20;46.00;;;;;;1621386;73;758;-71
2021/10/18 00:25:01;;;;;;;;;;;23.20;46.00;;;;;;1621110;73;730;-72
2021/10/18 00:27:03;;;;;;;;;;;23.20;46.00;;;;;;1621603;73;724;-73
2021/10/18 00:29:05;;;;;;;;;;;23.20;46.00;;;;;;1621463;73;1952;-70
2021/10/18 00:31:07;;;;;;;;;;;23.20;46.00;;;;;;1595173;73;1099;-71
2021/10/18 00:33:09;;;;;;;;;;;23.20;46.00;;;;;;1593268;74;774;-71
2021/10/18 00:35:11;;;;;;;;;;;23.20;46.00;;;;;;1593487;74;711;-70
2021/10/18 00:37:13;;;;;;;;;;;23.20;45.90;;;;;;1593143;74;762;-70
2021/10/18 00:39:15;;;;;;;;;;;23.20;45.90;;;;;;1593800;73;641;-71
2021/10/18 00:41:17;;;;;;;;;;;23.20;45.90;;;;;;1594321;73;1103;-73
2021/10/18 00:43:19;;;;;;;;;;;23.20;45.90;;;;;;1593004;74;723;-71
2021/10/18 00:45:22;;;;;;;;;;;23.20;45.80;;;;;;1593481;74;704;-72
2021/10/18 00:47:24;;;;;;;;;;;23.20;45.90;;;;;;1593102;74;1918;-71
2021/10/18 00:49:26;;;;;;;;;;;23.20;45.90;;;;;;1594234;73;640;-69
2021/10/18 00:51:28;;;;;;;;;;;23.20;45.90;;;;;;1618700;73;1169;-70
2021/10/18 00:53:29;;;;;;;;;;;23.20;45.80;;;;;;1618907;73;657;-70
2021/10/18 00:55:31;;;;;;;;;;;23.20;45.90;;;;;;1619402;73;722;-71
2021/10/18 00:57:33;;;;;;;;;;;23.20;45.90;;;;;;1616210;73;777;-70
2021/10/18 00:59:35;;;;;;;;;;;23.20;45.90;;;;;;1611079;73;722;-70
2021/10/18 01:01:37;;;;;;;;;;;23.20;45.90;;;;;;1621541;73;1173;-70
2021/10/18 01:03:39;;;;;;;;;;;23.20;45.90;;;;;;1621327;73;732;-69
2021/10/18 01:05:41;;;;;;;;;;;23.10;45.90;;;;;;1620261;73;682;-69
2021/10/18 01:07:43;;;;;;;;;;;23.20;45.90;;;;;;1621284;73;1904;-69
2021/10/18 01:09:45;;;;;;;;;;;23.20;45.90;;;;;;1621520;73;752;-71
2021/10/18 01:11:47;;;;;;;;;;;23.10;45.90;;;;;;1621124;73;1130;-72
2021/10/18 01:13:49;;;;;;;;;;;23.20;45.80;;;;;;1600636;73;785;-70
2021/10/18 01:15:50;;;;;;;;;;;23.20;45.80;;;;;;1608063;73;715;-73
2021/10/18 01:17:52;;;;;;;;;;;23.20;45.90;;;;;;1608351;73;760;-71
2021/10/18 01:19:54;;;;;;;;;;;23.10;45.80;;;;;;1588127;73;839;-72
2021/10/18 01:21:57;;;;;;;;;;;23.10;45.80;;;;;;1586763;75;1081;-71
2021/10/18 01:23:59;;;;;;;;;;;23.20;45.90;;;;;;1587075;73;788;-71
2021/10/18 01:26:01;;;;;;;;;;;23.10;45.90;;;;;;1587086;75;724;-70
2021/10/18 01:28:03;;;;;;;;;;;23.20;45.90;;;;;;1591966;73;1937;-71
2021/10/18 01:30:05;;;;;;;;;;;23.20;45.80;;;;;;1593554;74;782;-70
2021/10/18 01:32:07;;;;;;;;;;;23.20;45.90;;;;;;1589935;73;1182;-70
2021/10/18 01:34:09;;;;;;;;;;;23.10;45.80;;;;;;1586782;75;713;-71
2021/10/18 01:36:11;;;;;;;;;;;23.10;45.80;;;;;;1606548;73;775;-70
2021/10/18 01:38:13;;;;;;;;;;;23.20;45.80;;;;;;1621441;73;711;-70
2021/10/18 01:40:15;;;;;;;;;;;23.20;45.80;;;;;;1621583;73;641;-70
2021/10/18 01:42:17;;;;;;;;;;;23.20;45.80;;;;;;1621476;73;663;-71
2021/10/18 01:44:19;;;;;;;;;;;23.20;45.80;;;;;;1607335;73;756;-70
2021/10/18 01:46:21;;;;;;;;;;;23.10;45.80;;;;;;1593549;74;751;-71
2021/10/18 01:48:23;;;;;;;;;;;23.20;45.80;;;;;;1597694;73;1934;-70
2021/10/18 01:50:25;;;;;;;;;;;23.20;45.80;;;;;;1627161;73;1171;-73
2021/10/18 01:52:27;;;;;;;;;;;23.10;45.80;;;;;;1627255;73;865;-72
2021/10/18 01:54:29;;;;;;;;;;;23.20;45.80;;;;;;1613000;73;726;-71
2021/10/18 01:56:31;;;;;;;;;;;23.10;45.80;;;;;;1593315;74;679;-71
2021/10/18 01:58:33;;;;;;;;;;;23.10;45.80;;;;;;1593450;74;762;-70
2021/10/18 02:00:35;;;;;;;;;;;23.10;45.80;;;;;;1593177;74;1154;-71
2021/10/18 02:02:37;;;;;;;;;;;23.10;45.80;;;;;;1559082;71;228588;-77
2021/10/18 02:04:39;;;;;;;;;;;23.10;45.80;;;;;;1553738;76;867;-78
2021/10/18 02:06:41;;;;;;;;;;;23.10;45.70;;;;;;1553843;76;727;-77
2021/10/18 02:08:42;;;;;;;;;;;23.10;45.70;;;;;;1540839;77;1949;-77
2021/10/18 02:10:44;;;;;;;;;;;23.10;45.70;;;;;;1540897;77;649;-78
2021/10/18 02:12:46;;;;;;;;;;;23.10;45.70;;;;;;1556229;76;1144;-78
2021/10/18 02:14:48;;;;;;;;;;;23.10;45.70;;;;;;1566601;76;785;-78
2021/10/18 02:16:50;;;;;;;;;;;23.20;45.70;;;;;;1557356;76;725;-78
2021/10/18 02:18:52;;;;;;;;;;;23.10;45.70;;;;;;1554110;76;945;-78
2021/10/18 02:20:59;;;;;;;;;;;23.10;45.70;;;;;;1540798;76;777;-78
2021/10/18 02:22:58;;;;;;;;;;;23.10;45.70;;;;;;1539516;76;1640;-79
2021/10/18 02:24:59;;;;;;;;;;;23.10;45.70;;;;;;1542939;76;743;-78
2021/10/18 02:27:01;;;;;;;;;;;23.10;45.70;;;;;;1541068;76;748;-78
2021/10/18 02:29:03;;;;;;;;;;;23.10;45.80;;;;;;1540631;77;1940;-78
2021/10/18 02:31:05;;;;;;;;;;;23.10;45.80;;;;;;1540824;77;663;-78
2021/10/18 02:33:07;;;;;;;;;;;23.10;45.80;;;;;;1556615;76;1132;-78
2021/10/18 02:35:09;;;;;;;;;;;23.10;45.80;;;;;;1542535;76;804;-78
2021/10/18 02:37:11;;;;;;;;;;;23.10;45.80;;;;;;1540884;77;853;-78
2021/10/18 02:39:13;;;;;;;;;;;23.10;45.80;;;;;;1540809;77;704;-79
2021/10/18 02:41:14;;;;;;;;;;;23.10;45.90;;;;;;1552757;76;729;-79
2021/10/18 02:43:16;;;;;;;;;;;23.10;45.90;;;;;;1567313;76;1083;-79
2021/10/18 02:45:18;;;;;;;;;;;23.10;46.00;;;;;;1567294;76;740;-79
2021/10/18 02:47:20;;;;;;;;;;;23.20;45.90;;;;;;1567039;76;663;-79
2021/10/18 02:49:22;;;;;;;;;;;23.20;45.90;;;;;;1566645;76;1943;-78
2021/10/18 02:51:24;;;;;;;;;;;23.20;45.80;;;;;;1565423;74;793;-77
2021/10/18 02:53:26;;;;;;;;;;;23.20;45.80;;;;;;1540796;77;1195;-78
2021/10/18 02:55:28;;;;;;;;;;;23.30;45.80;;;;;;1540757;77;769;-77
2021/10/18 02:57:30;;;;;;;;;;;23.30;45.70;;;;;;1540594;77;706;-77
2021/10/18 02:59:32;;;;;;;;;;;23.30;45.70;;;;;;1547535;76;662;-77
2021/10/18 03:01:33;;;;;;;;;;;23.40;45.70;;;;;;1567417;76;751;-77
2021/10/18 03:03:35;;;;;;;;;;;23.40;45.50;;;;;;1566932;76;1148;-76
2021/10/18 03:05:37;;;;;;;;;;;23.50;45.60;;;;;;1567383;76;674;-76
2021/10/18 03:07:39;;;;;;;;;;;23.50;45.50;;;;;;1563045;76;717;-78
2021/10/18 03:09:41;;;;;;;;;;;23.60;45.30;;;;;;1541451;76;1919;-79
2021/10/18 03:11:43;;;;;;;;;;;23.70;45.30;;;;;;1540844;77;757;-79
2021/10/18 03:13:45;;;;;;;;;;;23.70;45.00;;;;;;1553144;73;228186;-55
2021/10/18 03:15:47;;;;;;;;;;;23.70;45.00;;;;;;1562107;75;1189;-55
2021/10/18 03:17:48;;;;;;;;;;;23.90;44.80;;;;;;1553619;75;737;-55
2021/10/18 03:19:50;;;;;;;;;;;23.80;44.90;;;;;;1565721;76;806;-55
2021/10/18 03:21:52;;;;;;;;;;;23.80;44.80;;;;;;1546598;75;674;-56
2021/10/18 03:23:54;;;;;;;;;;;23.90;44.60;;;;;;1547518;75;741;-57
2021/10/18 03:25:56;;;;;;;;;;;23.90;44.60;;;;;;1547058;75;1013;-57
2021/10/18 03:27:58;;;;;;;;;;;23.90;44.60;;;;;;1547420;77;740;-57
2021/10/18 03:30:00;;;;;;;;;;;23.90;44.60;;;;;;1546660;76;1943;-57
2021/10/18 03:32:02;;;;;;;;;;;23.90;44.70;;;;;;1545531;77;636;-56
2021/10/18 03:34:05;;;;;;;;;;;23.90;44.70;;;;;;1545998;77;704;-55
2021/10/18 03:36:07;;;;;;;;;;;23.80;44.60;;;;;;1545956;75;1068;-57
2021/10/18 03:38:09;;;;;;;;;;;24.00;44.60;;;;;;1545153;77;750;-57
2021/10/18 03:40:12;;;;;;;;;;;23.90;44.60;;;;;;1547518;76;738;-57
2021/10/18 03:42:14;;;;;;;;;;;23.90;44.50;;;;;;1547255;76;712;-58
2021/10/18 03:44:16;;;;;;;;;;;23.90;44.50;;;;;;1547120;75;1126;-57
2021/10/18 03:46:17;;;;;;;;;;;24.00;44.50;;;;;;1546863;76;723;-57
2021/10/18 03:48:19;;;;;;;;;;;23.90;44.60;;;;;;1546732;75;672;-55
2021/10/18 03:50:21;;;;;;;;;;;23.90;44.70;;;;;;1567068;74;1940;-56
2021/10/18 03:52:23;;;;;;;;;;;23.80;44.50;;;;;;1594571;73;766;-56
2021/10/18 03:54:25;;;;;;;;;;;23.80;44.60;;;;;;1594483;73;1165;-54
2021/10/18 03:56:27;;;;;;;;;;;23.90;44.70;;;;;;1591725;74;654;-53
2021/10/18 03:58:29;;;;;;;;;;;23.80;44.70;;;;;;1521528;77;755;-55
2021/10/18 04:00:30;;;;;;;;;;;23.80;44.70;;;;;;1541368;76;721;-56
2021/10/18 04:02:33;;;;;;;;;;;23.70;44.70;;;;;;1561490;76;711;-55
2021/10/18 04:04:34;;;;;;;;;;;23.70;44.70;;;;;;1561538;75;1113;-55
2021/10/18 04:06:36;;;;;;;;;;;23.70;44.70;;;;;;1574274;73;802;-57
2021/10/18 04:08:39;;;;;;;;;;;23.70;44.80;;;;;;1588640;74;1915;-54
2021/10/18 04:10:43;;;;;;;;;;;23.70;44.80;;;;;;1588549;74;763;-58
2021/10/18 04:12:45;;;;;;;;;;;23.70;45.00;;;;;;1587496;75;705;-58
2021/10/18 04:14:46;;;;;;;;;;;23.60;44.90;;;;;;1588612;73;1116;-57
2021/10/18 04:16:48;;;;;;;;;;;23.60;44.90;;;;;;1588658;74;654;-56
2021/10/18 04:18:50;;;;;;;;;;;23.70;45.00;;;;;;1588231;73;655;-54
2021/10/18 04:20:52;;;;;;;;;;;23.70;45.00;;;;;;1586856;74;728;-57
2021/10/18 04:22:54;;;;;;;;;;;23.60;45.00;;;;;;1587441;73;733;-56
2021/10/18 04:24:56;;;;;;;;;;;23.60;45.00;;;;;;1587091;73;1137;-56
2021/10/18 04:26:58;;;;;;;;;;;23.60;45.00;;;;;;1592284;73;702;-57
2021/10/18 04:29:00;;;;;;;;;;;23.60;45.00;;;;;;1598542;73;1926;-57
2021/10/18 04:31:01;;;;;;;;;;;23.70;45.00;;;;;;1616846;73;671;-55
2021/10/18 04:33:03;;;;;;;;;;;23.60;45.00;;;;;;1616743;72;759;-55
2021/10/18 04:35:06;;;;;;;;;;;23.50;45.00;;;;;;1600436;73;1147;-58
2021/10/18 04:37:08;;;;;;;;;;;23.60;45.10;;;;;;1588569;74;688;-56
2021/10/18 04:39:09;;;;;;;;;;;23.60;45.20;;;;;;1588608;73;725;-58
2021/10/18 04:41:11;;;;;;;;;;;23.50;45.20;;;;;;1588356;74;646;-59
2021/10/18 04:43:13;;;;;;;;;;;23.50;45.20;;;;;;1587894;74;574;-57
2021/10/18 04:45:15;;;;;;;;;;;23.50;45.20;;;;;;1588354;73;1158;-57
2021/10/18 04:47:17;;;;;;;;;;;23.50;45.20;;;;;;1588570;75;664;-57
2021/10/18 04:49:19;;;;;;;;;;;23.50;45.30;;;;;;1588564;74;1944;-59
2021/10/18 04:51:21;;;;;;;;;;;23.60;45.30;;;;;;1588133;74;706;-56
2021/10/18 04:53:22;;;;;;;;;;;23.50;45.30;;;;;;1587757;74;733;-57
2021/10/18 04:55:24;;;;;;;;;;;23.50;45.40;;;;;;1588562;73;1147;-58
2021/10/18 04:57:26;;;;;;;;;;;23.60;45.40;;;;;;1588099;73;712;-58
2021/10/18 04:59:28;;;;;;;;;;;23.50;45.30;;;;;;1588483;73;718;-58
2021/10/18 05:01:30;;;;;;;;;;;23.50;45.30;;;;;;1588502;73;690;-57
2021/10/18 05:03:32;;;;;;;;;;;23.50;45.40;;;;;;1587395;74;681;-56
2021/10/18 05:05:35;;;;;;;;;;;23.50;45.50;;;;;;1601946;73;1139;-56
2021/10/18 05:07:37;;;;;;;;;;;23.60;45.40;;;;;;1586463;73;665;-57
2021/10/18 05:09:39;;;;;;;;;;;23.60;45.30;;;;;;1586202;73;1921;-55
2021/10/18 05:11:40;;;;;;;;;;;23.60;45.20;;;;;;1582402;73;657;-55
2021/10/18 05:13:42;;;;;;;;;;;23.60;45.20;;;;;;1588141;74;607;-56
2021/10/18 05:15:46;;;;;;;;;;;23.50;45.00;;;;;;1588230;73;1190;-57
2021/10/18 05:17:48;;;;;;;;;;;23.50;44.90;;;;;;1588349;73;804;-57
2021/10/18 05:19:50;;;;;;;;;;;23.50;44.90;;;;;;1588159;74;728;-55
2021/10/18 05:21:52;;;;;;;;;;;23.50;44.70;;;;;;1587318;73;717;-57
2021/10/18 05:23:54;;;;;;;;;;;23.50;44.70;;;;;;1589642;73;701;-55
2021/10/18 05:25:55;;;;;;;;;;;23.50;44.70;;;;;;1592009;73;1187;-56
2021/10/18 05:27:57;;;;;;;;;;;23.40;44.50;;;;;;1591359;73;769;-55
2021/10/18 05:29:59;;;;;;;;;;;23.40;44.50;;;;;;1587362;73;1937;-56
2021/10/18 05:32:01;;;;;;;;;;;23.40;44.50;;;;;;1597288;73;543;-56
2021/10/18 05:34:03;;;;;;;;;;;23.40;44.60;;;;;;1588515;74;772;-54
2021/10/18 05:36:05;;;;;;;;;;;23.50;44.70;;;;;;1588032;73;1077;-55
2021/10/18 05:38:07;;;;;;;;;;;23.40;44.50;;;;;;1587325;73;792;-55
2021/10/18 05:40:09;;;;;;;;;;;23.40;44.60;;;;;;1587912;74;713;-57
2021/10/18 05:42:11;;;;;;;;;;;23.40;44.50;;;;;;1588016;74;708;-57
2021/10/18 05:44:13;;;;;;;;;;;23.30;44.70;;;;;;1588475;73;1192;-55
2021/10/18 05:46:15;;;;;;;;;;;23.30;44.70;;;;;;1597277;73;1145;-54
2021/10/18 05:48:17;;;;;;;;;;;23.30;44.70;;;;;;1600728;73;700;-58
2021/10/18 05:50:40;;;;;;;;;;;23.30;44.70;;;;;;1588333;75;1927;-56
2021/10/18 05:52:41;;;;;;;;;;;23.30;44.70;;;;;;1630607;72;704;-56
2021/10/18 05:54:43;;;;;;;;;;;23.30;44.50;;;;;;1612550;73;1219;-55
2021/10/18 05:56:45;;;;;;;;;;;23.20;44.40;;;;;;1592527;74;698;-59
2021/10/18 05:58:47;;;;;;;;;;;23.20;44.30;;;;;;1601459;74;792;-56
2021/10/18 06:00:49;;;;;;;;;;;23.30;44.40;;;;;;1602223;74;701;-54
2021/10/18 06:02:51;;;;;;;;;;;23.20;44.40;;;;;;1602191;74;788;-57
2021/10/18 06:04:53;;;;;;;;;;;23.20;44.40;;;;;;1601999;74;1083;-57
2021/10/18 06:06:55;;;;;;;;;;;23.20;44.40;;;;;;1602021;74;650;-56
2021/10/18 06:08:56;;;;;;;;;;;23.20;44.30;;;;;;1601869;74;724;-56
2021/10/18 06:10:58;;;;;;;;;;;23.10;44.30;;;;;;1595618;73;1942;-56
2021/10/18 06:13:00;;;;;;;;;;;23.20;44.30;;;;;;1593985;73;693;-56
2021/10/18 06:15:03;;;;;;;;;;;23.10;44.30;;;;;;1601126;73;1121;-56
2021/10/18 06:17:05;;;;;;;;;;;23.20;44.40;;;;;;1585436;73;672;-57
2021/10/18 06:19:07;;;;;;;;;;;23.20;44.30;;;;;;1602478;74;682;-56
2021/10/18 06:21:08;;;;;;;;;;;23.10;44.20;;;;;;1602235;73;711;-55
2021/10/18 06:23:10;;;;;;;;;;;23.10;44.30;;;;;;1574510;74;742;-54
2021/10/18 06:25:12;;;;;;;;;;;23.10;44.20;;;;;;1578838;73;1145;-56
2021/10/18 06:27:14;;;;;;;;;;;23.00;44.00;;;;;;1602438;73;717;-58
2021/10/18 06:29:16;;;;;;;;;;;23.00;43.80;;;;;;1578355;73;712;-56
2021/10/18 06:31:18;;;;;;;;;;;23.00;43.80;;;;;;1594809;74;1960;-57
2021/10/18 06:33:21;;;;;;;;;;;23.00;43.80;;;;;;1594939;74;797;-56
2021/10/18 06:35:23;;;;;;;;;;;23.00;43.70;;;;;;1594520;74;1180;-54
2021/10/18 06:37:24;;;;;;;;;;;23.00;43.60;;;;;;1601095;74;724;-55
2021/10/18 06:39:26;;;;;;;;;;;23.00;43.50;;;;;;1602500;74;798;-56
2021/10/18 06:41:28;;;;;;;;;;;23.00;43.60;;;;;;1602050;74;706;-56
2021/10/18 06:43:30;;;;;;;;;;;22.90;43.50;;;;;;1602274;74;778;-58
2021/10/18 06:45:32;;;;;;;;;;;22.90;43.60;;;;;;1601812;74;1148;-55
2021/10/18 06:47:34;;;;;;;;;;;23.00;43.60;;;;;;1602076;74;716;-54
2021/10/18 06:49:37;;;;;;;;;;;22.90;43.60;;;;;;1602563;74;1945;-53
2021/10/18 06:51:46;;;;;;;;;;;22.90;43.60;;;;;;1602365;74;787;-57
2021/10/18 06:53:42;;;;;;;;;;;22.90;43.60;;;;;;1601473;74;1596;-55
2021/10/18 06:55:44;;;;;;;;;;;22.90;43.60;;;;;;1600535;73;1169;-56
2021/10/18 06:57:46;;;;;;;;;;;22.90;43.50;;;;;;1589663;73;726;-56
2021/10/18 06:59:48;;;;;;;;;;;22.90;43.10;;;;;;1575349;73;723;-56
2021/10/18 07:01:50;;;;;;;;;;;22.90;42.50;;;;;;1573442;74;716;-54
2021/10/18 07:03:52;;;;;;;;;;;22.90;42.30;;;;;;1568681;74;750;-55
2021/10/18 07:05:54;;;;;;;;;;;22.70;42.00;;;;;;1563573;74;1085;-55
2021/10/18 07:07:56;;;;;;;;;;;22.80;41.80;;;;;;1573407;74;612;-56
2021/10/18 07:10:00;;;;;;;;;;;22.80;41.50;;;;;;1572889;73;1926;-54
2021/10/18 07:12:02;;;;;;;;;;;22.70;41.40;;;;;;1585136;73;740;-55
2021/10/18 07:14:04;;;;;;;;;;;22.60;41.00;;;;;;1578307;73;708;-57
2021/10/18 07:16:06;;;;;;;;;;;22.60;40.90;;;;;;1591046;74;1094;-54
2021/10/18 07:18:08;;;;;;;;;;;22.50;40.80;;;;;;1595852;74;732;-55
2021/10/18 07:20:10;;;;;;;;;;;22.60;40.70;;;;;;1597847;74;737;-57
2021/10/18 07:22:12;;;;;;;;;;;22.50;40.50;;;;;;1583715;74;741;-55
2021/10/18 07:24:16;;;;;;;;;;;22.50;40.40;;;;;;1575487;74;1108;-54
2021/10/18 07:26:20;;;;;;;;;;;22.50;40.40;;;;;;1593914;73;1733;-55
2021/10/18 07:28:21;;;;;;;;;;;22.40;40.20;;;;;;1583694;73;1950;-58
2021/10/18 07:30:23;;;;;;;;;;;22.50;40.20;;;;;;1586955;73;1940;-55
2021/10/18 07:32:25;;;;;;;;;;;22.40;40.00;;;;;;1596597;73;724;-56
2021/10/18 07:34:28;;;;;;;;;;;22.40;40.00;;;;;;1594413;73;1156;-57
2021/10/18 07:36:30;;;;;;;;;;;22.30;40.00;;;;;;1585655;73;713;-55
2021/10/18 07:38:32;;;;;;;;;;;22.30;40.00;;;;;;1583681;73;590;-57
2021/10/18 07:40:34;;;;;;;;;;;22.30;39.90;;;;;;1582846;73;682;-56
2021/10/18 07:42:36;;;;;;;;;;;22.30;39.90;;;;;;1586736;73;560;-57
2021/10/18 07:44:37;;;;;;;;;;;22.20;39.80;;;;;;1576546;74;1145;-55
2021/10/18 07:46:40;;;;;;;;;;;22.20;39.70;;;;;;1588051;73;773;-56
2021/10/18 07:48:42;;;;;;;;;;;22.20;39.70;;;;;;1576621;74;625;-56
2021/10/18 07:50:44;;;;;;;;;;;22.20;39.70;;;;;;1597466;73;1936;-56
2021/10/18 07:52:46;;;;;;;;;;;22.20;39.70;;;;;;1597676;73;742;-56
2021/10/18 07:54:52;;;;;;;;;;;22.20;39.70;;;;;;1595573;73;1172;-57
2021/10/18 07:56:51;;;;;;;;;;;22.20;39.80;;;;;;1587064;73;1619;-55
2021/10/18 07:58:53;;;;;;;;;;;22.10;39.70;;;;;;1585026;73;731;-54
2021/10/18 08:00:55;;;;;;;;;;;22.10;39.70;;;;;;1575388;74;718;-54
2021/10/18 08:02:57;;;;;;;;;;;22.10;39.70;;;;;;1584029;72;224313;-78
2021/10/18 08:04:59;;;;;;;;;;;22.00;39.50;;;;;;1593845;74;745;-78
2021/10/18 08:07:01;;;;;;;;;;;22.10;39.70;;;;;;1586381;74;735;-77
2021/10/18 08:09:06;;;;;;;;;;;22.00;39.40;;;;;;1584533;74;1168;-81
2021/10/18 08:11:07;;;;;;;;;;;22.00;39.50;;;;;;1583304;74;1915;-77
2021/10/18 08:13:08;;;;;;;;;;;22.00;39.60;;;;;;1587351;74;670;-79
2021/10/18 08:15:10;;;;;;;;;;;22.00;39.60;;;;;;1570804;74;723;-78
2021/10/18 08:17:12;;;;;;;;;;;22.00;39.70;;;;;;1585742;73;715;-79
2021/10/18 08:19:14;;;;;;;;;;;22.00;39.60;;;;;;1582265;74;1162;-78
2021/10/18 08:21:16;;;;;;;;;;;22.00;39.60;;;;;;1583035;74;677;-77
2021/10/18 08:23:18;;;;;;;;;;;22.00;39.70;;;;;;1599406;74;725;-77
2021/10/18 08:25:20;;;;;;;;;;;22.00;39.70;;;;;;1596432;74;705;-76
2021/10/18 08:27:22;;;;;;;;;;;21.90;39.70;;;;;;1582564;74;727;-76
2021/10/18 08:29:24;;;;;;;;;;;21.90;39.80;;;;;;1567774;73;1072;-78
2021/10/18 08:31:25;;;;;;;;;;;21.90;39.80;;;;;;1585323;74;1937;-77
2021/10/18 08:33:27;;;;;;;;;;;21.90;39.80;;;;;;1585200;74;711;-79
2021/10/18 08:35:29;;;;;;;;;;;21.90;39.80;;;;;;1583018;74;697;-76
2021/10/18 08:40:03;;;;;;;;;;;21.90;39.80;;;;;;1601841;74;1584;-80
2021/10/18 08:42:01;;;;;;;;;;;21.90;39.80;;;;;;1599502;74;1003;-77
2021/10/18 08:44:21;;;;;;;;;;;21.90;39.80;;;;;;1601121;74;1088;-77
2021/10/18 08:46:03;;;;;;;;;;;21.80;39.70;;;;;;1581280;74;1162;-79
2021/10/18 08:48:06;;;;;;;;;;;21.80;39.70;;;;;;1584946;73;1137;-78
2021/10/18 08:50:08;;;;;;;;;;;21.90;39.90;;;;;;1572879;75;1049;-77
2021/10/18 08:52:11;;;;;;;;;;;21.80;39.70;;;;;;1580881;74;1929;-78
2021/10/18 08:54:13;;;;;;;;;;;21.80;39.70;;;;;;1584309;73;228246;-60
2021/10/18 08:56:15;;;;;;;;;;;21.80;39.70;;;;;;1609196;71;812;-60
2021/10/18 08:58:17;;;;;;;;;;;21.80;39.70;;;;;;1608179;71;795;-61
2021/10/18 09:00:35;;;;;;;;;;;21.80;39.70;;;;;;1606410;73;630;-60
2021/10/18 09:02:39;;;;;;;;;;;21.80;39.70;;;;;;1557113;76;1138;-60
2021/10/18 09:04:41;;;;;;;;;;;21.80;39.70;;;;;;1587805;72;2380;-63
2021/10/18 09:06:46;;;;;;;;;;;21.80;39.70;;;;;;1621972;71;712;-64
2021/10/18 09:08:49;;;;;;;;;;;21.80;39.80;;;;;;1612069;71;772;-59
2021/10/18 09:11:06;;;;;;;;;;;21.80;39.80;;;;;;1624845;71;1936;-59
2021/10/18 09:13:11;;;;;;;;;;;21.80;39.80;;;;;;1613435;71;705;-60
2021/10/18 09:15:23;;;;;;;;;;;21.80;39.90;;;;;;1625131;71;1155;-63
2021/10/18 09:17:32;;;;;;;;;;;21.70;39.80;;;;;;1620985;71;696;-63
2021/10/18 09:19:34;;;;;;;;;;;21.70;39.80;;;;;;1603910;73;852;-63
2021/10/18 09:21:37;;;;;;;;;;;21.70;39.80;;;;;;1608607;71;698;-67
2021/10/18 09:23:40;;;;;;;;;;;21.80;39.80;;;;;;1623044;71;724;-60
2021/10/18 09:25:42;;;;;;;;;;;21.70;39.80;;;;;;1630109;71;1150;-62
2021/10/18 09:27:44;;;;;;;;;;;21.80;39.80;;;;;;1608415;73;662;-60
2021/10/18 09:29:51;;;;;;;;;;;21.70;39.80;;;;;;1606411;73;668;-63
2021/10/18 09:32:00;;;;;;;;;;;21.70;39.80;;;;;;1603744;73;1895;-58
2021/10/18 09:34:15;;;;;;;;;;;21.70;39.80;;;;;;1611823;71;703;-59
2021/10/18 09:36:23;;;;;;;;;;;21.70;39.90;;;;;;1632443;73;714;-60
2021/10/18 09:38:22;;;;;;;;;;;21.70;39.90;;;;;;1632808;72;1589;-59
2021/10/18 09:40:31;;;;;;;;;;;21.80;39.90;;;;;;1632441;72;730;-64
2021/10/18 09:42:33;;;;;;;;;;;21.70;39.90;;;;;;1625461;71;1740;-61
2021/10/18 09:47:20;;;;;;;;;;;21.70;40.00;;;;;;1603815;71;856;-60
2021/10/18 10:52:46;;;;;;;;;;;21.80;41.00;;;;;;1579052;74;1857;-61
2021/10/18 10:54:46;;;;;;;;;;;21.80;40.90;;;;;;1580181;75;1603;-59
2021/10/18 10:56:58;;;;;;;;;;;21.90;41.00;;;;;;1591948;73;733;-60
2021/10/18 10:59:26;;;;;;;;;;;21.80;41.00;;;;;;1593089;73;1612;-58
2021/10/18 11:01:42;;;;;;;;;;;21.80;40.90;;;;;;1601820;74;1579;-62
2021/10/18 11:03:44;;;;;;;;;;;21.80;40.90;;;;;;1602174;74;741;-59
2021/10/18 11:05:56;;;;;;;;;;;21.80;40.90;;;;;;1602664;74;1168;-64
2021/10/18 11:07:57;;;;;;;;;;;21.80;40.90;;;;;;1599121;73;722;-64
2021/10/18 11:09:59;;;;;;;;;;;21.80;41.00;;;;;;1587179;74;767;-59
2021/10/18 11:12:01;;;;;;;;;;;21.90;41.20;;;;;;1584650;74;1938;-59
2021/10/18 11:14:03;;;;;;;;;;;21.80;41.00;;;;;;1592903;74;781;-59
2021/10/18 11:16:05;;;;;;;;;;;21.80;41.00;;;;;;1591041;73;1110;-60
2021/10/18 11:18:07;;;;;;;;;;;21.80;41.10;;;;;;1597402;73;664;-62
2021/10/18 11:20:12;;;;;;;;;;;21.80;41.00;;;;;;1592962;74;807;-62
2021/10/18 11:22:14;;;;;;;;;;;21.90;41.20;;;;;;1583807;74;776;-60
2021/10/18 11:24:16;;;;;;;;;;;21.80;41.10;;;;;;1576867;74;1182;-59
2021/10/18 11:26:18;;;;;;;;;;;21.90;41.30;;;;;;1587720;73;811;-61
2021/10/18 11:28:20;;;;;;;;;;;21.90;41.40;;;;;;1585511;74;667;-60
2021/10/18 11:30:22;;;;;;;;;;;21.80;41.20;;;;;;1602766;74;1189;-61
2021/10/18 11:32:24;;;;;;;;;;;21.80;41.30;;;;;;1632359;73;1894;-61
2021/10/18 11:34:26;;;;;;;;;;;21.80;41.30;;;;;;1631889;71;1098;-58
2021/10/18 11:36:28;;;;;;;;;;;21.80;41.30;;;;;;1632005;71;737;-60
2021/10/18 11:38:30;;;;;;;;;;;21.90;41.40;;;;;;1630214;71;643;-61
2021/10/18 11:40:39;;;;;;;;;;;21.90;41.40;;;;;;1619431;71;752;-63
2021/10/18 11:42:42;;;;;;;;;;;21.80;41.20;;;;;;1606984;71;732;-60
2021/10/18 11:44:48;;;;;;;;;;;21.80;41.20;;;;;;1618619;71;1964;-64
2021/10/18 11:46:50;;;;;;;;;;;21.80;41.20;;;;;;1626920;71;733;-59
2021/10/18 11:48:52;;;;;;;;;;;21.80;41.20;;;;;;1628685;71;676;-59
2021/10/18 11:50:54;;;;;;;;;;;21.80;41.20;;;;;;1621427;71;774;-62
2021/10/18 11:52:58;;;;;;;;;;;21.80;41.20;;;;;;1626107;71;1902;-59
2021/10/18 11:55:00;;;;;;;;;;;21.80;41.20;;;;;;1617319;71;1156;-59
2021/10/18 11:57:02;;;;;;;;;;;21.80;41.20;;;;;;1633166;71;738;-59
2021/10/18 11:59:07;;;;;;;;;;;21.80;41.20;;;;;;1639378;71;712;-60
2021/10/18 12:01:18;;;;;;;;;;;21.80;41.20;;;;;;1634828;71;710;-59
2021/10/18 12:03:17;;;;;;;;;;;21.80;41.30;;;;;;1619450;71;1648;-59
2021/10/18 12:05:23;;;;;;;;;;;21.80;41.30;;;;;;1631947;73;1146;-60
2021/10/18 12:07:41;;;;;;;;;;;21.80;41.40;;;;;;1632191;72;1697;-59
2021/10/18 12:09:43;;;;;;;;;;;21.80;41.40;;;;;;1632404;73;649;-59
2021/10/18 12:11:47;;;;;;;;;;;21.80;41.30;;;;;;1632132;71;1935;-59
2021/10/18 12:13:48;;;;;;;;;;;21.70;41.40;;;;;;1631834;71;1732;-65
2021/10/18 12:16:07;;;;;;;;;;;21.80;41.30;;;;;;1632402;72;1115;-59
2021/10/18 12:18:09;;;;;;;;;;;21.80;41.40;;;;;;1632700;73;694;-59
2021/10/18 12:20:11;;;;;;;;;;;21.80;41.40;;;;;;1632544;72;658;-62
2021/10/18 12:22:13;;;;;;;;;;;21.80;41.40;;;;;;1632552;73;790;-62
2021/10/18 12:24:15;;;;;;;;;;;21.80;41.40;;;;;;1632004;71;1174;-63
2021/10/18 12:26:18;;;;;;;;;;;21.80;41.40;;;;;;1601905;73;790;-62
2021/10/18 12:28:30;;;;;;;;;;;21.80;41.40;;;;;;1598278;74;733;-59
2021/10/18 12:30:41;;;;;;;;;;;21.70;41.50;;;;;;1602763;71;718;-59
2021/10/18 12:32:43;;;;;;;;;;;21.80;41.40;;;;;;1631768;71;1935;-63
2021/10/18 12:34:45;;;;;;;;;;;21.70;41.50;;;;;;1632437;71;1158;-63
2021/10/18 12:36:54;;;;;;;;;;;21.80;41.50;;;;;;1632352;71;751;-60
2021/10/18 12:38:56;;;;;;;;;;;21.80;41.50;;;;;;1632380;71;742;-61
2021/10/18 12:41:13;;;;;;;;;;;21.80;41.50;;;;;;1631832;71;774;-60
2021/10/18 12:43:27;;;;;;;;;;;21.70;41.50;;;;;;1631912;71;1442;-59
2021/10/18 12:45:30;;;;;;;;;;;21.70;41.60;;;;;;1629321;71;1114;-59
2021/10/18 12:47:32;;;;;;;;;;;21.70;41.50;;;;;;1632202;71;1812;-62
2021/10/18 12:49:34;;;;;;;;;;;21.70;41.50;;;;;;1602379;74;676;-63
2021/10/18 12:51:43;;;;;;;;;;;21.80;41.50;;;;;;1628807;71;1942;-62
2021/10/18 12:53:44;;;;;;;;;;;21.80;41.50;;;;;;1639930;71;802;-63
2021/10/18 12:55:47;;;;;;;;;;;21.70;41.60;;;;;;1632638;73;1149;-59
2021/10/18 12:57:50;;;;;;;;;;;21.70;41.50;;;;;;1632747;72;752;-61
2021/10/18 13:00:11;;;;;;;;;;;21.70;41.50;;;;;;1632321;73;729;-60
2021/10/18 13:02:17;;;;;;;;;;;21.70;41.50;;;;;;1631948;71;709;-59
2021/10/18 13:04:19;;;;;;;;;;;21.70;41.60;;;;;;1632851;73;1145;-64
2021/10/18 13:06:21;;;;;;;;;;;21.70;41.60;;;;;;1632372;73;790;-58
2021/10/18 13:08:23;;;;;;;;;;;21.70;41.70;;;;;;1632205;71;725;-59
2021/10/18 13:10:29;;;;;;;;;;;21.70;41.60;;;;;;1632135;71;800;-59
2021/10/18 13:12:30;;;;;;;;;;;21.70;41.60;;;;;;1632218;73;1908;-59
2021/10/18 13:14:32;;;;;;;;;;;21.70;41.70;;;;;;1632837;73;1163;-59
2021/10/18 13:16:34;;;;;;;;;;;21.70;41.70;;;;;;1632726;73;629;-63
2021/10/18 13:18:36;;;;;;;;;;;21.70;41.70;;;;;;1632163;71;659;-62
2021/10/18 13:20:38;;;;;;;;;;;21.60;41.60;;;;;;1632945;73;706;-59